Language selection

Features

My Weather Profile Weather Topics  | 

Pacific - North Coast: Past 24 Hour Conditions

 

North Hecate Strait - 46183

01:00 PM PST 11 November 2019Buoy position: 53.63N 131.1W
Disclaimer

This table is a summary of hourly weather conditions for the past 24 hours.
Please note that these observations might not always be representative of weather conditions over their associated marine area.

Date / Time
(PST)
Wind(knots) Wave height(m) Wave period(s) Pressure(kPa) Air tempC) Water tempC)
11 November 2019
13:00 SSE 27 gust 37 4.4 9.0 101.2 11 16
12:00 SSE 31 gust 41 4.1 8.0 101.2 11 16
11:00 SSE 31 gust 39 4.0 8.0 101.3 11 16
10:00 SSE 33 gust 41 4.1 9.0 101.3 10 16
9:00 SSE 33 gust 41 3.9 8.0 101.3 10 17
8:00 SE 33 gust 43 3.6 8.0 101.4 10 17
7:00 SE 31 gust 41 3.1 6.0 101.5 10 16
6:00 SE 29 gust 37 2.8 6.0 101.6 9 16
5:00 SE 31 gust 37 2.4 6.0 101.7 10 16
4:00 ESE 29 gust 35 2.1 6.0 101.8 10 16
3:00 SE 25 gust 33 1.7 5.0 101.9 10 16
2:00 SE 23 gust 27 1.4 5.0 102.0 10 16
1:00 SE 22 gust 25 1.3 5.0 102.1 10 16
0:00 SSE 19 gust 22 1.1 5.0 102.2 11 15
10 November 2019
23:00 SE 17 gust 19 1.0 4.0 102.2 10 16
22:00 SE 12 gust 13 0.8 4.0 102.3 10 16
21:00 ESE 10 gust 12 0.7 4.0 102.4 10 16
20:00 SE 10 gust 12 0.7 5.0 102.4 10 16
19:00 SE 10 gust 13 0.6 4.0 102.5 11 16
18:00 SE 8 gust 10 0.6 4.0 102.5 11 16
17:00 S 8 gust 10 0.6 4.0 102.6 11 16
16:00 S 10 gust 12 0.6 4.0 102.6 10 15
15:00 SSE 8 gust 10 0.7 4.0 102.6 11 15
14:00 SSE 10 gust 12 0.8 4.0 102.6 11 15
13:00 SSE 12 gust 16 0.8 4.0 102.7 11 15

Zoom-in to make a selection

Map of Pacific - North Coast marine weather areas Middle Nomad - 46004 South Nomad - 46036 Dixon Entrance Central - 46145 South Moresby - 46147 Nanakwa Shoal - 46181 North Hecate Strait - 46183 North Nomad - 46184 South Hecate Strait - 46185 West Sea Otter - 46204 West Dixon Entrance - 46205 East Dellwood - 46207 West Moresby - 46208 Sartine Island Cape St.James Kindakun Rocks Langara Island Masset Municipal Airport Rose Spit Sandspit Airport Bella Bella Airport Bella Coola Airport Bonilla Island Cathedral Point Cumshewa Island Grey Islet Holland Rock Lucy Islands Lightstation Prince Rupert Airport
Legend:
buoy Buoy
land station Land Station

Pacific - North Coast Area

Another Region

What we are doing

Date modified: